sensor_id;sensor_type;location;lat;lon;timestamp;P1;durP1;ratioP1;P2;durP2;ratioP2
2896;SDS011;1458;49.728;9.228;2023-05-28T00:00:03;2.30;;;2.30;;
2896;SDS011;1458;49.728;9.228;2023-05-28T00:02:39;2.20;;;2.20;;
2896;SDS011;1458;49.728;9.228;2023-05-28T00:05:06;2.37;;;2.37;;
2896;SDS011;1458;49.728;9.228;2023-05-28T00:07:35;2.30;;;2.30;;
2896;SDS011;1458;49.728;9.228;2023-05-28T00:10:03;2.70;;;2.70;;
2896;SDS011;1458;49.728;9.228;2023-05-28T00:12:31;3.30;;;3.30;;
2896;SDS011;1458;49.728;9.228;2023-05-28T00:14:58;1.70;;;1.70;;
2896;SDS011;1458;49.728;9.228;2023-05-28T00:17:26;1.70;;;1.70;;
2896;SDS011;1458;49.728;9.228;2023-05-28T00:19:55;1.60;;;1.60;;
2896;SDS011;1458;49.728;9.228;2023-05-28T00:22:22;1.50;;;1.50;;
2896;SDS011;1458;49.728;9.228;2023-05-28T00:24:50;1.60;;;1.60;;
2896;SDS011;1458;49.728;9.228;2023-05-28T00:27:17;1.87;;;1.87;;
2896;SDS011;1458;49.728;9.228;2023-05-28T00:29:45;1.50;;;1.50;;
2896;SDS011;1458;49.728;9.228;2023-05-28T00:32:12;1.50;;;1.50;;
2896;SDS011;1458;49.728;9.228;2023-05-28T00:34:40;1.50;;;1.50;;
2896;SDS011;1458;49.728;9.228;2023-05-28T00:37:08;1.30;;;1.30;;
2896;SDS011;1458;49.728;9.228;2023-05-28T00:39:36;1.30;;;1.30;;
2896;SDS011;1458;49.728;9.228;2023-05-28T00:42:03;1.40;;;1.40;;
2896;SDS011;1458;49.728;9.228;2023-05-28T00:44:32;1.40;;;1.40;;
2896;SDS011;1458;49.728;9.228;2023-05-28T00:47:00;1.40;;;1.40;;
2896;SDS011;1458;49.728;9.228;2023-05-28T00:49:28;1.40;;;1.40;;
2896;SDS011;1458;49.728;9.228;2023-05-28T00:51:58;1.50;;;1.50;;
2896;SDS011;1458;49.728;9.228;2023-05-28T00:54:29;1.30;;;1.30;;
2896;SDS011;1458;49.728;9.228;2023-05-28T00:56:57;1.10;;;1.10;;
2896;SDS011;1458;49.728;9.228;2023-05-28T00:59:26;1.20;;;1.20;;
2896;SDS011;1458;49.728;9.228;2023-05-28T01:01:54;1.20;;;1.20;;
2896;SDS011;1458;49.728;9.228;2023-05-28T01:04:21;1.20;;;1.20;;
2896;SDS011;1458;49.728;9.228;2023-05-28T01:06:49;1.40;;;1.40;;
2896;SDS011;1458;49.728;9.228;2023-05-28T01:09:17;1.40;;;1.40;;
2896;SDS011;1458;49.728;9.228;2023-05-28T01:11:46;1.30;;;1.30;;
2896;SDS011;1458;49.728;9.228;2023-05-28T01:14:16;1.40;;;1.40;;
2896;SDS011;1458;49.728;9.228;2023-05-28T01:16:44;1.30;;;1.30;;
2896;SDS011;1458;49.728;9.228;2023-05-28T01:19:13;1.40;;;1.40;;
2896;SDS011;1458;49.728;9.228;2023-05-28T01:21:45;1.23;;;1.23;;
2896;SDS011;1458;49.728;9.228;2023-05-28T01:24:15;0.90;;;0.90;;
2896;SDS011;1458;49.728;9.228;2023-05-28T01:26:43;1.10;;;1.10;;
2896;SDS011;1458;49.728;9.228;2023-05-28T01:29:15;1.00;;;1.00;;
2896;SDS011;1458;49.728;9.228;2023-05-28T01:31:44;0.90;;;0.90;;
2896;SDS011;1458;49.728;9.228;2023-05-28T01:34:12;0.80;;;0.80;;
2896;SDS011;1458;49.728;9.228;2023-05-28T01:36:41;0.80;;;0.80;;
2896;SDS011;1458;49.728;9.228;2023-05-28T01:39:14;0.80;;;0.80;;
2896;SDS011;1458;49.728;9.228;2023-05-28T01:41:45;0.83;;;0.83;;
2896;SDS011;1458;49.728;9.228;2023-05-28T01:44:13;0.70;;;0.70;;
2896;SDS011;1458;49.728;9.228;2023-05-28T01:46:42;0.70;;;0.70;;
2896;SDS011;1458;49.728;9.228;2023-05-28T01:49:11;0.70;;;0.70;;
2896;SDS011;1458;49.728;9.228;2023-05-28T01:51:39;0.70;;;0.70;;
2896;SDS011;1458;49.728;9.228;2023-05-28T01:54:07;0.70;;;0.70;;
2896;SDS011;1458;49.728;9.228;2023-05-28T01:56:36;0.70;;;0.70;;
2896;SDS011;1458;49.728;9.228;2023-05-28T01:59:03;0.70;;;0.70;;
2896;SDS011;1458;49.728;9.228;2023-05-28T02:01:31;0.70;;;0.70;;
2896;SDS011;1458;49.728;9.228;2023-05-28T02:04:04;0.80;;;0.80;;
2896;SDS011;1458;49.728;9.228;2023-05-28T02:06:32;0.70;;;0.70;;
2896;SDS011;1458;49.728;9.228;2023-05-28T02:09:01;0.70;;;0.70;;
2896;SDS011;1458;49.728;9.228;2023-05-28T02:11:29;0.60;;;0.60;;
2896;SDS011;1458;49.728;9.228;2023-05-28T02:13:57;0.70;;;0.70;;
2896;SDS011;1458;49.728;9.228;2023-05-28T02:16:27;0.70;;;0.70;;
2896;SDS011;1458;49.728;9.228;2023-05-28T02:18:55;0.70;;;0.70;;
2896;SDS011;1458;49.728;9.228;2023-05-28T02:21:23;0.80;;;0.80;;
2896;SDS011;1458;49.728;9.228;2023-05-28T02:23:51;0.80;;;0.80;;
2896;SDS011;1458;49.728;9.228;2023-05-28T02:26:18;0.80;;;0.80;;
2896;SDS011;1458;49.728;9.228;2023-05-28T02:28:47;0.70;;;0.70;;
2896;SDS011;1458;49.728;9.228;2023-05-28T02:31:16;0.70;;;0.70;;
2896;SDS011;1458;49.728;9.228;2023-05-28T02:33:44;0.70;;;0.70;;
2896;SDS011;1458;49.728;9.228;2023-05-28T02:36:13;0.70;;;0.70;;
2896;SDS011;1458;49.728;9.228;2023-05-28T02:38:40;0.70;;;0.70;;
2896;SDS011;1458;49.728;9.228;2023-05-28T02:41:09;0.60;;;0.60;;
2896;SDS011;1458;49.728;9.228;2023-05-28T02:43:41;0.60;;;0.60;;
2896;SDS011;1458;49.728;9.228;2023-05-28T02:46:09;0.60;;;0.60;;
2896;SDS011;1458;49.728;9.228;2023-05-28T02:48:38;0.60;;;0.60;;
2896;SDS011;1458;49.728;9.228;2023-05-28T02:51:08;0.60;;;0.60;;
2896;SDS011;1458;49.728;9.228;2023-05-28T02:53:50;0.70;;;0.70;;
2896;SDS011;1458;49.728;9.228;2023-05-28T02:56:18;0.70;;;0.70;;
2896;SDS011;1458;49.728;9.228;2023-05-28T02:58:46;0.60;;;0.60;;
2896;SDS011;1458;49.728;9.228;2023-05-28T03:01:14;0.80;;;0.80;;
2896;SDS011;1458;49.728;9.228;2023-05-28T03:03:43;0.60;;;0.60;;
2896;SDS011;1458;49.728;9.228;2023-05-28T03:06:11;0.60;;;0.60;;
2896;SDS011;1458;49.728;9.228;2023-05-28T03:08:46;0.57;;;0.57;;
2896;SDS011;1458;49.728;9.228;2023-05-28T03:11:13;0.50;;;0.50;;
2896;SDS011;1458;49.728;9.228;2023-05-28T03:13:41;0.50;;;0.50;;
2896;SDS011;1458;49.728;9.228;2023-05-28T03:16:08;0.80;;;0.80;;
2896;SDS011;1458;49.728;9.228;2023-05-28T03:18:36;0.50;;;0.50;;
2896;SDS011;1458;49.728;9.228;2023-05-28T03:21:06;0.50;;;0.50;;
2896;SDS011;1458;49.728;9.228;2023-05-28T03:23:34;0.50;;;0.50;;
2896;SDS011;1458;49.728;9.228;2023-05-28T03:26:06;0.40;;;0.40;;
2896;SDS011;1458;49.728;9.228;2023-05-28T03:28:34;0.50;;;0.50;;
2896;SDS011;1458;49.728;9.228;2023-05-28T03:31:27;0.50;;;0.50;;
2896;SDS011;1458;49.728;9.228;2023-05-28T03:33:57;0.50;;;0.50;;
2896;SDS011;1458;49.728;9.228;2023-05-28T03:36:27;0.50;;;0.50;;
2896;SDS011;1458;49.728;9.228;2023-05-28T03:38:55;0.40;;;0.40;;
2896;SDS011;1458;49.728;9.228;2023-05-28T03:41:25;0.50;;;0.50;;
2896;SDS011;1458;49.728;9.228;2023-05-28T03:43:52;0.50;;;0.50;;
2896;SDS011;1458;49.728;9.228;2023-05-28T03:46:19;0.50;;;0.50;;
2896;SDS011;1458;49.728;9.228;2023-05-28T03:48:47;0.50;;;0.50;;
2896;SDS011;1458;49.728;9.228;2023-05-28T03:51:15;0.50;;;0.50;;
2896;SDS011;1458;49.728;9.228;2023-05-28T03:53:44;0.40;;;0.40;;
2896;SDS011;1458;49.728;9.228;2023-05-28T03:56:11;0.40;;;0.40;;
2896;SDS011;1458;49.728;9.228;2023-05-28T03:58:39;0.50;;;0.50;;
2896;SDS011;1458;49.728;9.228;2023-05-28T04:01:06;0.50;;;0.50;;
2896;SDS011;1458;49.728;9.228;2023-05-28T04:03:34;0.57;;;0.57;;
2896;SDS011;1458;49.728;9.228;2023-05-28T04:06:02;0.50;;;0.50;;
2896;SDS011;1458;49.728;9.228;2023-05-28T04:08:30;0.50;;;0.50;;
2896;SDS011;1458;49.728;9.228;2023-05-28T04:10:58;0.60;;;0.60;;
2896;SDS011;1458;49.728;9.228;2023-05-28T04:13:26;0.50;;;0.50;;
2896;SDS011;1458;49.728;9.228;2023-05-28T04:15:53;0.50;;;0.50;;
2896;SDS011;1458;49.728;9.228;2023-05-28T04:18:21;0.60;;;0.60;;
2896;SDS011;1458;49.728;9.228;2023-05-28T04:20:52;0.50;;;0.50;;
2896;SDS011;1458;49.728;9.228;2023-05-28T04:23:19;0.40;;;0.40;;
2896;SDS011;1458;49.728;9.228;2023-05-28T04:25:47;0.50;;;0.50;;
2896;SDS011;1458;49.728;9.228;2023-05-28T04:28:16;0.50;;;0.50;;
2896;SDS011;1458;49.728;9.228;2023-05-28T04:30:44;0.60;;;0.60;;
2896;SDS011;1458;49.728;9.228;2023-05-28T04:33:16;0.60;;;0.60;;
2896;SDS011;1458;49.728;9.228;2023-05-28T04:35:44;0.80;;;0.80;;
2896;SDS011;1458;49.728;9.228;2023-05-28T04:38:12;1.43;;;1.43;;
2896;SDS011;1458;49.728;9.228;2023-05-28T04:40:39;1.70;;;1.70;;
2896;SDS011;1458;49.728;9.228;2023-05-28T04:43:07;1.80;;;1.80;;
2896;SDS011;1458;49.728;9.228;2023-05-28T04:45:41;2.40;;;2.40;;
2896;SDS011;1458;49.728;9.228;2023-05-28T04:48:09;3.47;;;3.47;;
2896;SDS011;1458;49.728;9.228;2023-05-28T04:50:37;4.20;;;4.20;;
2896;SDS011;1458;49.728;9.228;2023-05-28T04:53:05;5.43;;;5.43;;
2896;SDS011;1458;49.728;9.228;2023-05-28T04:55:33;6.10;;;6.10;;
2896;SDS011;1458;49.728;9.228;2023-05-28T04:58:00;6.57;;;6.57;;
2896;SDS011;1458;49.728;9.228;2023-05-28T05:00:28;6.80;;;6.70;;
2896;SDS011;1458;49.728;9.228;2023-05-28T05:03:00;7.20;;;7.10;;
2896;SDS011;1458;49.728;9.228;2023-05-28T05:05:28;7.47;;;7.37;;
2896;SDS011;1458;49.728;9.228;2023-05-28T05:07:55;6.50;;;6.50;;
2896;SDS011;1458;49.728;9.228;2023-05-28T05:10:24;7.10;;;7.00;;
2896;SDS011;1458;49.728;9.228;2023-05-28T05:12:51;7.00;;;6.90;;
2896;SDS011;1458;49.728;9.228;2023-05-28T05:15:20;7.10;;;7.00;;
2896;SDS011;1458;49.728;9.228;2023-05-28T05:17:47;7.00;;;6.90;;
2896;SDS011;1458;49.728;9.228;2023-05-28T05:20:17;6.50;;;6.50;;
2896;SDS011;1458;49.728;9.228;2023-05-28T05:22:45;6.10;;;6.10;;
2896;SDS011;1458;49.728;9.228;2023-05-28T05:25:13;6.30;;;6.30;;
2896;SDS011;1458;49.728;9.228;2023-05-28T05:27:42;6.30;;;6.30;;
2896;SDS011;1458;49.728;9.228;2023-05-28T05:30:10;6.10;;;6.10;;
2896;SDS011;1458;49.728;9.228;2023-05-28T05:32:38;5.50;;;5.50;;
2896;SDS011;1458;49.728;9.228;2023-05-28T05:35:06;5.53;;;5.53;;
2896;SDS011;1458;49.728;9.228;2023-05-28T05:37:58;5.00;;;5.00;;
2896;SDS011;1458;49.728;9.228;2023-05-28T05:40:43;4.67;;;4.67;;
2896;SDS011;1458;49.728;9.228;2023-05-28T05:43:42;4.20;;;4.20;;
2896;SDS011;1458;49.728;9.228;2023-05-28T05:46:10;3.60;;;3.60;;
2896;SDS011;1458;49.728;9.228;2023-05-28T05:48:37;3.70;;;3.70;;
2896;SDS011;1458;49.728;9.228;2023-05-28T05:51:05;3.53;;;3.53;;
2896;SDS011;1458;49.728;9.228;2023-05-28T05:53:38;3.30;;;3.30;;
2896;SDS011;1458;49.728;9.228;2023-05-28T05:56:07;3.30;;;3.30;;
2896;SDS011;1458;49.728;9.228;2023-05-28T05:58:35;3.00;;;3.00;;
2896;SDS011;1458;49.728;9.228;2023-05-28T06:01:02;3.20;;;3.20;;
2896;SDS011;1458;49.728;9.228;2023-05-28T06:03:30;2.90;;;2.90;;
2896;SDS011;1458;49.728;9.228;2023-05-28T06:06:06;3.00;;;3.00;;
2896;SDS011;1458;49.728;9.228;2023-05-28T06:09:09;2.90;;;2.90;;
2896;SDS011;1458;49.728;9.228;2023-05-28T06:11:57;3.10;;;3.10;;
2896;SDS011;1458;49.728;9.228;2023-05-28T06:14:25;3.30;;;3.30;;
2896;SDS011;1458;49.728;9.228;2023-05-28T06:16:53;3.00;;;3.00;;
2896;SDS011;1458;49.728;9.228;2023-05-28T06:19:21;3.30;;;3.30;;
2896;SDS011;1458;49.728;9.228;2023-05-28T06:21:49;3.13;;;3.13;;
2896;SDS011;1458;49.728;9.228;2023-05-28T06:24:18;3.40;;;3.40;;
2896;SDS011;1458;49.728;9.228;2023-05-28T06:26:46;3.40;;;3.40;;
2896;SDS011;1458;49.728;9.228;2023-05-28T06:29:14;3.87;;;3.87;;
2896;SDS011;1458;49.728;9.228;2023-05-28T06:31:41;4.40;;;4.40;;
2896;SDS011;1458;49.728;9.228;2023-05-28T06:34:09;3.90;;;3.90;;
2896;SDS011;1458;49.728;9.228;2023-05-28T06:36:36;4.00;;;4.00;;
2896;SDS011;1458;49.728;9.228;2023-05-28T06:39:05;4.30;;;4.30;;
2896;SDS011;1458;49.728;9.228;2023-05-28T06:41:34;4.70;;;4.70;;
2896;SDS011;1458;49.728;9.228;2023-05-28T06:44:03;4.20;;;4.20;;
2896;SDS011;1458;49.728;9.228;2023-05-28T06:46:54;5.00;;;5.00;;
2896;SDS011;1458;49.728;9.228;2023-05-28T06:49:22;5.17;;;5.17;;
2896;SDS011;1458;49.728;9.228;2023-05-28T06:51:49;4.60;;;4.60;;
2896;SDS011;1458;49.728;9.228;2023-05-28T06:54:17;4.80;;;4.80;;
2896;SDS011;1458;49.728;9.228;2023-05-28T06:56:47;4.70;;;4.70;;
2896;SDS011;1458;49.728;9.228;2023-05-28T06:59:33;5.43;;;5.43;;
2896;SDS011;1458;49.728;9.228;2023-05-28T07:02:29;5.00;;;5.00;;
2896;SDS011;1458;49.728;9.228;2023-05-28T07:05:20;5.40;;;5.40;;
2896;SDS011;1458;49.728;9.228;2023-05-28T07:07:48;5.70;;;5.70;;
2896;SDS011;1458;49.728;9.228;2023-05-28T07:10:16;6.17;;;6.17;;
2896;SDS011;1458;49.728;9.228;2023-05-28T07:12:45;5.70;;;5.70;;
2896;SDS011;1458;49.728;9.228;2023-05-28T07:15:12;5.73;;;5.73;;
2896;SDS011;1458;49.728;9.228;2023-05-28T07:17:41;6.40;;;6.40;;
2896;SDS011;1458;49.728;9.228;2023-05-28T07:20:10;7.10;;;7.00;;
2896;SDS011;1458;49.728;9.228;2023-05-28T07:22:46;7.50;;;7.40;;
2896;SDS011;1458;49.728;9.228;2023-05-28T07:25:14;8.10;;;8.00;;
2896;SDS011;1458;49.728;9.228;2023-05-28T07:27:42;8.00;;;7.90;;
2896;SDS011;1458;49.728;9.228;2023-05-28T07:30:16;8.00;;;7.90;;
2896;SDS011;1458;49.728;9.228;2023-05-28T07:32:44;8.20;;;8.10;;
2896;SDS011;1458;49.728;9.228;2023-05-28T07:35:12;8.53;;;8.43;;
2896;SDS011;1458;49.728;9.228;2023-05-28T07:37:41;8.57;;;8.47;;
2896;SDS011;1458;49.728;9.228;2023-05-28T07:40:08;8.50;;;8.40;;
2896;SDS011;1458;49.728;9.228;2023-05-28T07:42:38;8.40;;;8.30;;
2896;SDS011;1458;49.728;9.228;2023-05-28T07:45:07;8.90;;;8.70;;
2896;SDS011;1458;49.728;9.228;2023-05-28T07:47:36;9.60;;;9.40;;
2896;SDS011;1458;49.728;9.228;2023-05-28T07:50:09;9.43;;;9.23;;
2896;SDS011;1458;49.728;9.228;2023-05-28T07:52:51;9.20;;;9.00;;
2896;SDS011;1458;49.728;9.228;2023-05-28T07:55:19;9.30;;;9.10;;
2896;SDS011;1458;49.728;9.228;2023-05-28T07:57:46;9.63;;;9.43;;
2896;SDS011;1458;49.728;9.228;2023-05-28T08:00:17;10.00;;;9.80;;
2896;SDS011;1458;49.728;9.228;2023-05-28T08:02:51;10.30;;;10.10;;
2896;SDS011;1458;49.728;9.228;2023-05-28T08:05:27;10.40;;;10.20;;
2896;SDS011;1458;49.728;9.228;2023-05-28T08:07:54;10.40;;;10.20;;
2896;SDS011;1458;49.728;9.228;2023-05-28T08:10:23;10.70;;;10.40;;
2896;SDS011;1458;49.728;9.228;2023-05-28T08:12:51;10.50;;;10.27;;
2896;SDS011;1458;49.728;9.228;2023-05-28T08:15:22;10.63;;;10.33;;
2896;SDS011;1458;49.728;9.228;2023-05-28T08:17:53;10.70;;;10.40;;
2896;SDS011;1458;49.728;9.228;2023-05-28T08:20:22;10.10;;;9.90;;
2896;SDS011;1458;49.728;9.228;2023-05-28T08:23:03;10.27;;;10.07;;
2896;SDS011;1458;49.728;9.228;2023-05-28T08:25:32;11.10;;;10.80;;
2896;SDS011;1458;49.728;9.228;2023-05-28T08:28:07;10.77;;;10.47;;
2896;SDS011;1458;49.728;9.228;2023-05-28T08:30:37;10.03;;;9.83;;
2896;SDS011;1458;49.728;9.228;2023-05-28T08:33:22;10.60;;;10.37;;
2896;SDS011;1458;49.728;9.228;2023-05-28T08:35:50;10.50;;;10.30;;
2896;SDS011;1458;49.728;9.228;2023-05-28T08:38:18;10.40;;;10.20;;
2896;SDS011;1458;49.728;9.228;2023-05-28T08:40:49;10.30;;;10.10;;
2896;SDS011;1458;49.728;9.228;2023-05-28T08:43:21;10.10;;;9.90;;
2896;SDS011;1458;49.728;9.228;2023-05-28T08:45:52;10.10;;;9.90;;
2896;SDS011;1458;49.728;9.228;2023-05-28T08:48:26;10.10;;;9.90;;
2896;SDS011;1458;49.728;9.228;2023-05-28T08:51:00;10.20;;;10.00;;
2896;SDS011;1458;49.728;9.228;2023-05-28T08:53:40;10.20;;;10.00;;
2896;SDS011;1458;49.728;9.228;2023-05-28T08:56:10;10.20;;;10.00;;
2896;SDS011;1458;49.728;9.228;2023-05-28T08:58:38;9.90;;;9.70;;
2896;SDS011;1458;49.728;9.228;2023-05-28T09:01:09;10.10;;;9.90;;
2896;SDS011;1458;49.728;9.228;2023-05-28T09:03:45;10.40;;;10.20;;
2896;SDS011;1458;49.728;9.228;2023-05-28T09:06:21;10.03;;;9.83;;
2896;SDS011;1458;49.728;9.228;2023-05-28T09:08:50;10.30;;;10.10;;
2896;SDS011;1458;49.728;9.228;2023-05-28T09:11:32;10.13;;;9.93;;
2896;SDS011;1458;49.728;9.228;2023-05-28T09:14:07;10.30;;;10.10;;
2896;SDS011;1458;49.728;9.228;2023-05-28T09:16:40;10.37;;;10.17;;
2896;SDS011;1458;49.728;9.228;2023-05-28T09:19:15;10.30;;;10.10;;
2896;SDS011;1458;49.728;9.228;2023-05-28T09:21:53;10.43;;;10.20;;
2896;SDS011;1458;49.728;9.228;2023-05-28T09:24:27;10.70;;;10.40;;
2896;SDS011;1458;49.728;9.228;2023-05-28T09:27:34;11.20;;;10.90;;
2896;SDS011;1458;49.728;9.228;2023-05-28T09:30:02;11.10;;;10.80;;
2896;SDS011;1458;49.728;9.228;2023-05-28T09:32:34;10.87;;;10.57;;
2896;SDS011;1458;49.728;9.228;2023-05-28T09:35:04;10.90;;;10.60;;
2896;SDS011;1458;49.728;9.228;2023-05-28T09:37:32;11.07;;;10.77;;
2896;SDS011;1458;49.728;9.228;2023-05-28T09:40:02;11.00;;;10.70;;
2896;SDS011;1458;49.728;9.228;2023-05-28T09:42:36;10.60;;;10.30;;
2896;SDS011;1458;49.728;9.228;2023-05-28T09:45:08;11.10;;;10.80;;
2896;SDS011;1458;49.728;9.228;2023-05-28T09:47:42;10.80;;;10.50;;
2896;SDS011;1458;49.728;9.228;2023-05-28T09:50:11;10.80;;;10.50;;
2896;SDS011;1458;49.728;9.228;2023-05-28T09:52:39;10.70;;;10.40;;
2896;SDS011;1458;49.728;9.228;2023-05-28T09:55:12;11.37;;;11.07;;
2896;SDS011;1458;49.728;9.228;2023-05-28T09:57:43;11.00;;;10.70;;
2896;SDS011;1458;49.728;9.228;2023-05-28T10:00:14;11.20;;;10.90;;
2896;SDS011;1458;49.728;9.228;2023-05-28T10:02:53;11.70;;;11.40;;
2896;SDS011;1458;49.728;9.228;2023-05-28T10:05:40;11.23;;;10.93;;
2896;SDS011;1458;49.728;9.228;2023-05-28T10:08:11;11.47;;;11.17;;
2896;SDS011;1458;49.728;9.228;2023-05-28T10:10:43;11.27;;;10.97;;
2896;SDS011;1458;49.728;9.228;2023-05-28T10:13:15;11.50;;;11.20;;
2896;SDS011;1458;49.728;9.228;2023-05-28T10:15:43;11.43;;;11.13;;
2896;SDS011;1458;49.728;9.228;2023-05-28T10:18:12;11.97;;;11.67;;
2896;SDS011;1458;49.728;9.228;2023-05-28T10:20:40;11.20;;;10.90;;
2896;SDS011;1458;49.728;9.228;2023-05-28T10:23:07;11.10;;;10.80;;
2896;SDS011;1458;49.728;9.228;2023-05-28T10:25:37;11.20;;;10.90;;
2896;SDS011;1458;49.728;9.228;2023-05-28T10:28:04;11.40;;;11.10;;
2896;SDS011;1458;49.728;9.228;2023-05-28T10:30:32;11.00;;;10.70;;
2896;SDS011;1458;49.728;9.228;2023-05-28T10:33:03;11.43;;;11.13;;
2896;SDS011;1458;49.728;9.228;2023-05-28T10:35:33;11.00;;;10.70;;
2896;SDS011;1458;49.728;9.228;2023-05-28T10:38:02;11.20;;;10.90;;
2896;SDS011;1458;49.728;9.228;2023-05-28T10:40:31;11.50;;;11.20;;
2896;SDS011;1458;49.728;9.228;2023-05-28T10:43:00;11.37;;;11.07;;
2896;SDS011;1458;49.728;9.228;2023-05-28T10:45:33;11.37;;;11.07;;
2896;SDS011;1458;49.728;9.228;2023-05-28T10:48:02;11.10;;;10.80;;
2896;SDS011;1458;49.728;9.228;2023-05-28T10:50:30;11.17;;;10.87;;
2896;SDS011;1458;49.728;9.228;2023-05-28T10:53:02;11.20;;;10.90;;
2896;SDS011;1458;49.728;9.228;2023-05-28T10:55:47;11.70;;;11.40;;
2896;SDS011;1458;49.728;9.228;2023-05-28T10:58:23;11.60;;;11.30;;
2896;SDS011;1458;49.728;9.228;2023-05-28T11:00:52;11.50;;;11.20;;
2896;SDS011;1458;49.728;9.228;2023-05-28T11:03:43;11.70;;;11.40;;
2896;SDS011;1458;49.728;9.228;2023-05-28T11:06:15;11.40;;;11.10;;
2896;SDS011;1458;49.728;9.228;2023-05-28T11:08:44;11.60;;;11.30;;
2896;SDS011;1458;49.728;9.228;2023-05-28T11:11:13;11.37;;;11.07;;
2896;SDS011;1458;49.728;9.228;2023-05-28T11:13:42;11.60;;;11.30;;
2896;SDS011;1458;49.728;9.228;2023-05-28T11:16:11;11.70;;;11.40;;
2896;SDS011;1458;49.728;9.228;2023-05-28T11:21:31;12.00;;;11.70;;
2896;SDS011;1458;49.728;9.228;2023-05-28T11:23:59;11.57;;;11.27;;
2896;SDS011;1458;49.728;9.228;2023-05-28T11:26:28;11.37;;;11.07;;
2896;SDS011;1458;49.728;9.228;2023-05-28T11:28:55;11.80;;;11.50;;
2896;SDS011;1458;49.728;9.228;2023-05-28T11:31:24;11.73;;;11.43;;
2896;SDS011;1458;49.728;9.228;2023-05-28T11:33:52;11.30;;;11.00;;
2896;SDS011;1458;49.728;9.228;2023-05-28T11:36:21;11.30;;;11.00;;
2896;SDS011;1458;49.728;9.228;2023-05-28T11:39:01;11.30;;;11.00;;
2896;SDS011;1458;49.728;9.228;2023-05-28T11:41:28;11.13;;;10.83;;
2896;SDS011;1458;49.728;9.228;2023-05-28T11:43:56;10.90;;;10.60;;
2896;SDS011;1458;49.728;9.228;2023-05-28T11:46:24;11.47;;;11.17;;
2896;SDS011;1458;49.728;9.228;2023-05-28T11:48:52;11.50;;;11.20;;
2896;SDS011;1458;49.728;9.228;2023-05-28T11:51:19;11.43;;;11.13;;
2896;SDS011;1458;49.728;9.228;2023-05-28T11:53:47;11.50;;;11.20;;
2896;SDS011;1458;49.728;9.228;2023-05-28T11:56:16;11.20;;;10.90;;
2896;SDS011;1458;49.728;9.228;2023-05-28T11:58:44;11.70;;;11.40;;
2896;SDS011;1458;49.728;9.228;2023-05-28T12:01:13;11.60;;;11.30;;
2896;SDS011;1458;49.728;9.228;2023-05-28T12:03:42;11.10;;;10.80;;
2896;SDS011;1458;49.728;9.228;2023-05-28T12:06:10;10.90;;;10.60;;
2896;SDS011;1458;49.728;9.228;2023-05-28T12:08:38;11.53;;;11.23;;
2896;SDS011;1458;49.728;9.228;2023-05-28T12:11:07;11.17;;;10.87;;
2896;SDS011;1458;49.728;9.228;2023-05-28T12:13:37;11.00;;;10.70;;
2896;SDS011;1458;49.728;9.228;2023-05-28T12:16:06;11.37;;;11.07;;
2896;SDS011;1458;49.728;9.228;2023-05-28T12:18:39;11.20;;;10.90;;
2896;SDS011;1458;49.728;9.228;2023-05-28T12:21:11;11.00;;;10.70;;
2896;SDS011;1458;49.728;9.228;2023-05-28T12:23:41;11.40;;;11.10;;
2896;SDS011;1458;49.728;9.228;2023-05-28T12:26:09;11.33;;;11.03;;
2896;SDS011;1458;49.728;9.228;2023-05-28T12:28:38;11.53;;;11.23;;
2896;SDS011;1458;49.728;9.228;2023-05-28T12:31:07;10.90;;;10.60;;
2896;SDS011;1458;49.728;9.228;2023-05-28T12:33:35;11.57;;;11.27;;
2896;SDS011;1458;49.728;9.228;2023-05-28T12:36:03;10.87;;;10.57;;
2896;SDS011;1458;49.728;9.228;2023-05-28T12:38:32;11.00;;;10.70;;
2896;SDS011;1458;49.728;9.228;2023-05-28T12:40:59;11.10;;;10.80;;
2896;SDS011;1458;49.728;9.228;2023-05-28T12:43:26;11.40;;;11.10;;
2896;SDS011;1458;49.728;9.228;2023-05-28T12:45:55;11.60;;;11.30;;
2896;SDS011;1458;49.728;9.228;2023-05-28T12:48:23;11.30;;;11.00;;
2896;SDS011;1458;49.728;9.228;2023-05-28T12:50:50;11.20;;;10.90;;
2896;SDS011;1458;49.728;9.228;2023-05-28T12:53:18;11.57;;;11.27;;
2896;SDS011;1458;49.728;9.228;2023-05-28T12:55:45;11.10;;;10.80;;
2896;SDS011;1458;49.728;9.228;2023-05-28T12:58:13;11.00;;;10.70;;
2896;SDS011;1458;49.728;9.228;2023-05-28T13:00:40;11.43;;;11.13;;
2896;SDS011;1458;49.728;9.228;2023-05-28T13:03:10;11.73;;;11.43;;
2896;SDS011;1458;49.728;9.228;2023-05-28T13:05:37;11.67;;;11.37;;
2896;SDS011;1458;49.728;9.228;2023-05-28T13:08:05;11.20;;;10.90;;
2896;SDS011;1458;49.728;9.228;2023-05-28T13:10:32;11.00;;;10.70;;
2896;SDS011;1458;49.728;9.228;2023-05-28T13:13:00;11.57;;;11.27;;
2896;SDS011;1458;49.728;9.228;2023-05-28T13:15:28;11.57;;;11.27;;
2896;SDS011;1458;49.728;9.228;2023-05-28T13:17:56;12.07;;;11.77;;
2896;SDS011;1458;49.728;9.228;2023-05-28T13:20:25;11.60;;;11.30;;
2896;SDS011;1458;49.728;9.228;2023-05-28T13:22:52;11.77;;;11.47;;
2896;SDS011;1458;49.728;9.228;2023-05-28T13:25:20;11.37;;;11.07;;
2896;SDS011;1458;49.728;9.228;2023-05-28T13:27:48;11.50;;;11.20;;
2896;SDS011;1458;49.728;9.228;2023-05-28T13:30:16;11.30;;;11.00;;
2896;SDS011;1458;49.728;9.228;2023-05-28T13:32:44;11.10;;;10.80;;
2896;SDS011;1458;49.728;9.228;2023-05-28T13:35:11;11.40;;;11.10;;
2896;SDS011;1458;49.728;9.228;2023-05-28T13:37:40;11.20;;;10.90;;
2896;SDS011;1458;49.728;9.228;2023-05-28T13:40:10;11.40;;;11.10;;
2896;SDS011;1458;49.728;9.228;2023-05-28T13:42:38;11.50;;;11.20;;
2896;SDS011;1458;49.728;9.228;2023-05-28T13:45:06;11.20;;;10.90;;
2896;SDS011;1458;49.728;9.228;2023-05-28T13:47:35;11.30;;;11.00;;
2896;SDS011;1458;49.728;9.228;2023-05-28T13:50:03;11.63;;;11.33;;
2896;SDS011;1458;49.728;9.228;2023-05-28T13:52:32;12.00;;;11.70;;
2896;SDS011;1458;49.728;9.228;2023-05-28T13:55:02;11.70;;;11.40;;
2896;SDS011;1458;49.728;9.228;2023-05-28T13:57:30;11.47;;;11.17;;
2896;SDS011;1458;49.728;9.228;2023-05-28T13:59:57;11.20;;;10.90;;
2896;SDS011;1458;49.728;9.228;2023-05-28T14:02:35;11.40;;;11.10;;
2896;SDS011;1458;49.728;9.228;2023-05-28T14:05:03;11.60;;;11.30;;
2896;SDS011;1458;49.728;9.228;2023-05-28T14:07:32;11.80;;;11.50;;
2896;SDS011;1458;49.728;9.228;2023-05-28T14:10:02;11.50;;;11.20;;
2896;SDS011;1458;49.728;9.228;2023-05-28T14:12:30;11.50;;;11.20;;
2896;SDS011;1458;49.728;9.228;2023-05-28T14:14:57;11.60;;;11.30;;
2896;SDS011;1458;49.728;9.228;2023-05-28T14:17:25;11.70;;;11.40;;
2896;SDS011;1458;49.728;9.228;2023-05-28T14:19:52;12.00;;;11.70;;
2896;SDS011;1458;49.728;9.228;2023-05-28T14:22:20;12.10;;;11.80;;
2896;SDS011;1458;49.728;9.228;2023-05-28T14:24:48;11.70;;;11.40;;
2896;SDS011;1458;49.728;9.228;2023-05-28T14:27:17;11.90;;;11.60;;
2896;SDS011;1458;49.728;9.228;2023-05-28T14:29:44;12.00;;;11.70;;
2896;SDS011;1458;49.728;9.228;2023-05-28T14:32:12;12.20;;;11.90;;
2896;SDS011;1458;49.728;9.228;2023-05-28T14:34:40;11.90;;;11.60;;
2896;SDS011;1458;49.728;9.228;2023-05-28T14:37:08;12.50;;;12.10;;
2896;SDS011;1458;49.728;9.228;2023-05-28T14:39:35;12.00;;;11.70;;
2896;SDS011;1458;49.728;9.228;2023-05-28T14:42:04;12.07;;;11.77;;
2896;SDS011;1458;49.728;9.228;2023-05-28T14:44:33;12.63;;;12.23;;
2896;SDS011;1458;49.728;9.228;2023-05-28T14:47:00;12.10;;;11.80;;
2896;SDS011;1458;49.728;9.228;2023-05-28T14:49:29;11.90;;;11.60;;
2896;SDS011;1458;49.728;9.228;2023-05-28T14:51:56;12.70;;;12.30;;
2896;SDS011;1458;49.728;9.228;2023-05-28T14:54:24;12.40;;;12.00;;
2896;SDS011;1458;49.728;9.228;2023-05-28T14:56:52;12.40;;;12.00;;
2896;SDS011;1458;49.728;9.228;2023-05-28T14:59:19;12.60;;;12.20;;
2896;SDS011;1458;49.728;9.228;2023-05-28T15:01:48;12.40;;;12.00;;
2896;SDS011;1458;49.728;9.228;2023-05-28T15:04:16;12.93;;;12.53;;
2896;SDS011;1458;49.728;9.228;2023-05-28T15:06:43;12.47;;;12.07;;
2896;SDS011;1458;49.728;9.228;2023-05-28T15:09:10;12.50;;;12.10;;
2896;SDS011;1458;49.728;9.228;2023-05-28T15:11:38;12.63;;;12.23;;
2896;SDS011;1458;49.728;9.228;2023-05-28T15:14:05;12.90;;;12.50;;
2896;SDS011;1458;49.728;9.228;2023-05-28T15:16:33;12.50;;;12.10;;
2896;SDS011;1458;49.728;9.228;2023-05-28T15:19:02;12.60;;;12.20;;
2896;SDS011;1458;49.728;9.228;2023-05-28T15:21:29;12.90;;;12.50;;